Weather at Estancia Los Leones Airport

Public forecast

Using degrees Celsius for public forecast. Weather courtesy of forecast.io.

Closest aviation weather report (METAR) to Estancia Los Leones Airport

Closest report is Rosario Islas Malvinas International Airport, 104.1 nm (192.8 km) S.

2024/07/17 20:00 (retrieved 34 minutes ago)

SAAR 172000Z 01012KT CAVOK 18/08 Q1019

Closest aviation forecast (TAF) to Estancia Los Leones Airport

Closest forecast is Rosario Islas Malvinas International Airport, 104.1 nm (192.8 km) S.

2024/07/17 18:31 (retrieved 2 hours ago)

TAF SAAR 171700Z 1718/1818 02010KT CAVOK TX21/1818Z TN07/1811Z TEMPO 1718/1722 9999 SCT030 TEMPO 1806/1811 5000 BR NSC